Time;durP1;ratioP1;P1;durP2;ratioP2;P2;SDS_P1;SDS_P2;PMS_P1;PMS_P2;Temp;Humidity;BMP_temperature;BMP_pressure;BME280_temperature;BME280_humidity;BME280_pressure;Samples;Min_cycle;Max_cycle;Signal;HPM_P1;HPM_P2
2022/06/20 00:00:17;;;;;;;7.23;5.50;;;23.10;99.90;;;;;;5000094;28;20443;-53
2022/06/20 00:02:48;;;;;;;5.50;5.00;;;23.00;99.90;;;;;;5000079;28;20899;-53
2022/06/20 00:05:30;;;;;;;6.40;4.90;;;22.90;99.90;;;;;;5000315;28;20434;-48
2022/06/20 00:07:58;;;;;;;8.50;5.13;;;22.90;99.90;;;;;;4993451;28;20406;-49
2022/06/20 00:10:28;;;;;;;8.80;5.20;;;22.80;99.90;;;;;;5000228;28;20410;-52
2022/06/20 00:12:56;;;;;;;14.03;9.73;;;22.70;99.90;;;;;;5000200;28;20418;-51
2022/06/20 00:15:31;;;;;;;6.50;5.73;;;22.70;99.90;;;;;;4998800;28;20438;-48
2022/06/20 00:17:59;;;;;;;7.50;6.90;;;22.70;99.90;;;;;;5000155;28;20795;-47
2022/06/20 00:20:27;;;;;;;5.27;4.87;;;22.70;99.90;;;;;;4999962;28;20510;-53
2022/06/20 00:22:55;;;;;;;10.63;5.10;;;22.70;99.90;;;;;;5003413;28;20744;-51
2022/06/20 00:25:23;;;;;;;9.20;5.77;;;22.60;99.90;;;;;;5003163;28;20426;-46
2022/06/20 00:27:56;;;;;;;6.40;5.80;;;22.60;99.90;;;;;;5003642;28;20440;-50
2022/06/20 00:30:24;;;;;;;10.27;5.27;;;22.60;99.90;;;;;;5002884;28;20797;-51
2022/06/20 00:32:51;;;;;;;6.63;5.97;;;22.60;99.90;;;;;;5003385;28;20447;-54
2022/06/20 00:35:19;;;;;;;7.00;5.30;;;22.50;99.90;;;;;;5003023;28;20693;-51
2022/06/20 00:37:47;;;;;;;5.90;5.40;;;22.50;99.90;;;;;;4995411;28;20736;-52
2022/06/20 00:40:36;;;;;;;9.70;6.13;;;22.40;99.90;;;;;;5003210;28;20417;-53
2022/06/20 00:43:06;;;;;;;7.83;5.80;;;22.40;99.90;;;;;;4997554;28;20454;-51
2022/06/20 00:45:40;;;;;;;5.93;5.20;;;22.40;99.90;;;;;;5003119;28;20492;-51
2022/06/20 00:48:14;;;;;;;7.90;5.67;;;22.40;99.90;;;;;;5003431;28;20427;-51
2022/06/20 00:50:45;;;;;;;8.80;6.50;;;22.40;99.90;;;;;;5002946;28;20409;-53
2022/06/20 00:53:27;;;;;;;10.53;6.67;;;22.40;99.90;;;;;;5003104;28;20449;-50
2022/06/20 00:55:58;;;;;;;4.90;4.50;;;22.20;99.90;;;;;;4995833;28;20733;-50
2022/06/20 00:58:44;;;;;;;6.20;5.53;;;22.20;99.90;;;;;;5002770;28;20413;-52
2022/06/20 01:01:17;;;;;;;5.70;4.97;;;22.20;99.90;;;;;;5002893;28;20597;-50
2022/06/20 01:03:53;;;;;;;8.33;6.37;;;22.10;99.90;;;;;;5002557;28;20505;-51
2022/06/20 01:06:30;;;;;;;8.27;6.03;;;22.10;99.90;;;;;;5002687;28;20444;-47
2022/06/20 01:09:05;;;;;;;6.87;5.60;;;21.90;99.90;;;;;;4997733;28;20410;-50
2022/06/20 01:11:43;;;;;;;7.20;6.50;;;21.90;99.90;;;;;;5002842;28;20425;-46
2022/06/20 01:14:26;;;;;;;8.20;6.63;;;21.90;99.90;;;;;;5003178;28;20406;-49
2022/06/20 01:16:58;;;;;;;8.13;6.00;;;21.90;99.90;;;;;;5002376;28;20417;-48
2022/06/20 01:19:33;;;;;;;5.77;5.20;;;21.90;99.90;;;;;;5002632;28;20743;-47
2022/06/20 01:22:17;;;;;;;6.90;6.30;;;21.70;99.90;;;;;;5002425;28;20406;-49
2022/06/20 01:24:57;;;;;;;13.73;7.03;;;21.60;99.90;;;;;;5002364;28;20453;-48
2022/06/20 01:27:39;;;;;;;6.90;6.30;;;21.60;99.90;;;;;;5001926;28;20427;-50
2022/06/20 01:30:07;;;;;;;11.27;5.67;;;21.50;99.90;;;;;;5002375;28;20413;-48
2022/06/20 01:32:35;;;;;;;12.40;6.17;;;21.50;99.90;;;;;;5001676;28;20406;-49
2022/06/20 01:35:06;;;;;;;9.70;6.67;;;21.30;99.90;;;;;;5002380;28;20485;-51
2022/06/20 01:37:37;;;;;;;8.87;7.90;;;21.30;99.90;;;;;;5002208;28;20410;-51
2022/06/20 01:40:11;;;;;;;6.27;5.77;;;21.40;99.90;;;;;;5001965;28;20432;-52
2022/06/20 01:42:39;;;;;;;7.50;6.90;;;21.40;99.90;;;;;;5001942;28;20574;-51
2022/06/20 01:48:08;;;;;;;9.03;8.13;;;21.10;99.90;;;;;;4995613;28;20432;-47
2022/06/20 01:50:37;;;;;;;6.60;6.00;;;21.00;99.90;;;;;;5001927;28;20600;-51
2022/06/20 01:53:07;;;;;;;7.87;7.17;;;20.90;99.90;;;;;;5002093;28;20670;-52
2022/06/20 01:55:35;;;;;;;11.73;7.70;;;20.90;99.90;;;;;;5001311;28;20436;-52
2022/06/20 01:58:11;;;;;;;6.37;5.87;;;20.80;99.90;;;;;;5001567;28;20835;-46
2022/06/20 02:00:38;;;;;;;8.63;7.90;;;20.70;99.90;;;;;;5000385;28;20433;-48
2022/06/20 02:03:09;;;;;;;13.80;7.43;;;20.60;99.90;;;;;;5001650;28;20490;-46
2022/06/20 02:05:37;;;;;;;11.47;7.10;;;20.50;99.90;;;;;;5000778;28;20811;-50
2022/06/20 02:08:07;;;;;;;8.23;7.70;;;20.50;99.90;;;;;;5001795;28;20423;-50
2022/06/20 02:10:41;;;;;;;8.73;7.93;;;20.40;99.90;;;;;;5000937;28;20420;-51
2022/06/20 02:13:09;;;;;;;8.87;7.50;;;20.30;99.90;;;;;;5001569;28;20412;-51
2022/06/20 02:15:37;;;;;;;8.33;7.63;;;20.20;99.90;;;;;;5001036;28;20790;-51
2022/06/20 02:18:07;;;;;;;9.33;7.90;;;20.10;99.90;;;;;;5001366;28;20421;-52
2022/06/20 02:20:51;;;;;;;8.87;7.80;;;20.10;99.90;;;;;;5000554;28;20496;-52
2022/06/20 02:23:27;;;;;;;13.03;8.87;;;20.00;99.90;;;;;;5000956;28;20503;-52
2022/06/20 02:25:57;;;;;;;9.57;8.67;;;19.90;99.90;;;;;;5001062;28;20472;-51
2022/06/20 02:28:40;;;;;;;11.13;9.80;;;19.80;99.90;;;;;;5001130;28;20409;-47
2022/06/20 02:31:08;;;;;;;10.20;9.20;;;19.70;99.90;;;;;;4996192;28;20453;-51
2022/06/20 02:33:36;;;;;;;13.27;10.23;;;19.70;99.90;;;;;;5001234;28;20403;-49
2022/06/20 02:36:06;;;;;;;13.67;10.90;;;19.60;99.90;;;;;;5001282;28;20442;-52
2022/06/20 02:38:34;;;;;;;13.93;11.70;;;19.60;99.90;;;;;;5000716;28;20438;-51
2022/06/20 02:41:02;;;;;;;11.07;10.03;;;19.60;99.90;;;;;;5000470;28;20452;-51
2022/06/20 02:43:51;;;;;;;17.93;11.67;;;19.50;99.90;;;;;;4999406;28;20829;-52
2022/06/20 02:46:23;;;;;;;14.13;10.67;;;19.40;99.90;;;;;;4997002;28;20429;-50
2022/06/20 02:48:52;;;;;;;14.17;13.03;;;19.30;99.90;;;;;;4993931;28;20444;-53
2022/06/20 02:51:25;;;;;;;13.90;10.57;;;19.30;99.90;;;;;;4998956;28;20454;-52
2022/06/20 02:53:58;;;;;;;13.30;12.10;;;19.30;99.90;;;;;;5000885;28;20452;-48
2022/06/20 02:56:30;;;;;;;12.03;10.90;;;19.20;99.90;;;;;;5000357;28;20431;-48
2022/06/20 02:59:02;;;;;;;14.07;12.53;;;19.20;99.90;;;;;;5000690;28;20420;-49
2022/06/20 03:01:39;;;;;;;12.03;10.93;;;19.20;99.90;;;;;;5000242;28;20444;-51
2022/06/20 03:04:10;;;;;;;12.57;11.43;;;19.20;99.90;;;;;;5000356;28;20453;-46
2022/06/20 03:06:42;;;;;;;11.60;10.57;;;19.20;99.90;;;;;;5000303;28;20466;-47
2022/06/20 03:09:15;;;;;;;16.23;12.47;;;19.20;99.90;;;;;;5000638;28;20776;-50
2022/06/20 03:11:43;;;;;;;13.63;12.63;;;19.10;99.90;;;;;;4999962;28;20483;-49
2022/06/20 03:14:14;;;;;;;14.93;11.47;;;19.10;99.90;;;;;;5000244;28;20440;-46
2022/06/20 03:16:42;;;;;;;14.03;12.57;;;19.10;99.90;;;;;;4999724;28;20672;-52
2022/06/20 03:19:31;;;;;;;13.00;12.10;;;19.10;99.90;;;;;;4996104;28;20431;-49
2022/06/20 03:22:04;;;;;;;13.20;12.07;;;19.10;99.90;;;;;;4999858;28;20436;-47
2022/06/20 03:24:32;;;;;;;12.63;11.40;;;19.20;99.90;;;;;;5000452;28;20543;-53
2022/06/20 03:27:01;;;;;;;16.13;11.97;;;19.20;99.90;;;;;;5000737;28;20440;-52
2022/06/20 03:29:28;;;;;;;17.37;11.70;;;19.20;99.90;;;;;;5001034;28;20482;-49
2022/06/20 03:31:56;;;;;;;13.10;11.50;;;19.30;99.90;;;;;;5000998;28;20435;-52
2022/06/20 03:34:23;;;;;;;12.40;11.07;;;19.40;99.90;;;;;;5000484;28;20441;-53
2022/06/20 03:36:56;;;;;;;11.70;10.70;;;19.60;99.90;;;;;;5000587;28;20436;-53
2022/06/20 03:39:23;;;;;;;14.20;11.50;;;19.80;99.90;;;;;;5000504;28;20450;-50
2022/06/20 03:41:51;;;;;;;11.93;10.90;;;19.80;99.90;;;;;;5000271;28;20437;-49
2022/06/20 03:44:37;;;;;;;12.83;11.80;;;19.60;99.90;;;;;;4999844;28;20480;-47
2022/06/20 03:47:20;;;;;;;14.23;12.27;;;19.60;99.90;;;;;;4994625;28;20445;-47
2022/06/20 03:50:09;;;;;;;14.63;10.73;;;19.60;99.90;;;;;;5001141;28;20467;-52
2022/06/20 03:53:02;;;;;;;12.83;11.60;;;19.70;99.90;;;;;;5000643;28;20419;-50
2022/06/20 03:55:32;;;;;;;13.83;11.50;;;19.80;99.90;;;;;;5001844;28;20426;-47
2022/06/20 03:58:07;;;;;;;12.83;11.77;;;20.00;99.90;;;;;;5003746;28;20433;-51
2022/06/20 04:00:49;;;;;;;16.43;11.67;;;20.10;99.90;;;;;;5004490;28;20867;-53
2022/06/20 04:03:34;;;;;;;12.63;11.10;;;20.30;99.90;;;;;;5003955;28;20429;-51
2022/06/20 04:06:27;;;;;;;17.53;12.03;;;20.50;99.90;;;;;;4997609;28;20431;-50
2022/06/20 04:12:27;;;;;;;12.60;11.33;;;21.00;99.90;;;;;;4998258;28;20835;-49
2022/06/20 04:15:03;;;;;;;16.27;13.27;;;21.20;99.90;;;;;;4999607;28;20437;-47
2022/06/20 04:21:15;;;;;;;12.33;11.30;;;21.30;99.90;;;;;;4979504;28;20446;-49
2022/06/20 04:23:51;;;;;;;11.37;10.30;;;21.50;99.90;;;;;;5003494;28;20646;-52
2022/06/20 04:26:37;;;;;;;10.43;9.57;;;21.60;99.90;;;;;;5002876;28;20447;-47
2022/06/20 04:29:22;;;;;;;12.27;11.07;;;21.50;99.90;;;;;;4997248;28;20435;-49
2022/06/20 04:32:04;;;;;;;10.03;9.10;;;21.50;99.90;;;;;;4997999;28;20489;-51
2022/06/20 04:34:39;;;;;;;11.60;10.50;;;21.50;99.90;;;;;;5003285;28;20628;-48
2022/06/20 04:37:14;;;;;;;12.73;10.00;;;21.50;99.90;;;;;;5004260;28;20835;-47
2022/06/20 04:39:50;;;;;;;12.20;11.00;;;21.50;99.90;;;;;;5007212;28;20418;-50
2022/06/20 04:42:18;;;;;;;12.07;10.97;;;21.30;99.90;;;;;;5002075;28;20413;-50
2022/06/20 04:45:02;;;;;;;11.80;10.67;;;21.40;99.90;;;;;;5002127;28;20646;-50
2022/06/20 04:47:51;;;;;;;13.50;11.97;;;21.40;99.90;;;;;;5001328;28;20427;-50
2022/06/20 04:50:21;;;;;;;11.90;10.70;;;21.50;99.90;;;;;;5002823;28;20416;-47
2022/06/20 04:52:52;;;;;;;14.40;10.10;;;21.60;99.90;;;;;;5002700;28;20444;-46
2022/06/20 04:55:23;;;;;;;11.00;9.90;;;21.60;99.90;;;;;;5002767;28;20445;-49
2022/06/20 04:57:52;;;;;;;13.60;12.03;;;21.90;99.90;;;;;;5001434;28;20445;-53
2022/06/20 05:00:24;;;;;;;14.77;10.40;;;22.30;99.90;;;;;;5002953;28;20498;-49
2022/06/20 05:02:54;;;;;;;10.67;9.77;;;22.50;99.90;;;;;;5002510;28;20449;-50
2022/06/20 05:05:29;;;;;;;12.90;11.90;;;22.90;99.90;;;;;;5002176;28;20557;-50
2022/06/20 05:07:57;;;;;;;10.13;9.33;;;23.20;99.90;;;;;;5002487;28;20470;-47
2022/06/20 05:10:35;;;;;;;12.47;11.00;;;23.40;99.90;;;;;;5001848;28;20446;-51
2022/06/20 05:13:13;;;;;;;10.10;9.20;;;23.80;99.90;;;;;;5002576;28;20435;-48
2022/06/20 05:15:43;;;;;;;9.63;8.47;;;23.90;99.90;;;;;;5001986;28;20652;-51
2022/06/20 05:18:41;;;;;;;20.63;8.77;;;24.30;99.90;;;;;;5002071;28;20645;-49
2022/06/20 05:21:22;;;;;;;16.53;11.03;;;24.20;99.90;;;;;;4993181;28;20425;-50
2022/06/20 05:23:53;;;;;;;11.20;9.73;;;24.20;99.90;;;;;;5001262;28;20460;-47
2022/06/20 05:26:30;;;;;;;12.47;11.20;;;24.20;99.90;;;;;;5002014;28;20776;-49
2022/06/20 05:29:01;;;;;;;14.10;11.80;;;24.00;99.90;;;;;;5001230;28;20406;-53
2022/06/20 05:31:44;;;;;;;11.40;10.30;;;23.90;99.90;;;;;;5001690;28;20414;-54
2022/06/20 05:34:46;;;;;;;10.43;9.43;;;23.70;99.90;;;;;;5001618;28;20413;-49
2022/06/20 05:37:25;;;;;;;11.30;10.33;;;23.50;99.90;;;;;;4997198;28;20444;-48
2022/06/20 05:40:10;;;;;;;16.70;10.50;;;23.50;99.90;;;;;;5002330;28;20412;-52
2022/06/20 05:42:38;;;;;;;11.70;10.70;;;23.40;99.90;;;;;;5000888;28;20456;-46
2022/06/20 05:45:21;;;;;;;14.97;10.73;;;23.40;99.90;;;;;;5004002;28;20458;-49
2022/06/20 05:47:55;;;;;;;13.33;12.00;;;23.50;99.90;;;;;;5001942;28;20432;-52
2022/06/20 05:50:44;;;;;;;13.40;11.30;;;23.50;99.90;;;;;;5002879;28;20414;-46
2022/06/20 05:53:24;;;;;;;14.37;12.80;;;23.80;99.90;;;;;;5001354;28;20414;-47
2022/06/20 05:55:55;;;;;;;12.77;10.00;;;24.10;99.90;;;;;;4998109;28;20646;-47
2022/06/20 05:58:31;;;;;;;13.77;12.17;;;24.30;99.90;;;;;;5000903;28;20435;-48
2022/06/20 06:01:03;;;;;;;10.80;9.83;;;24.40;99.90;;;;;;5001476;28;20457;-53
2022/06/20 06:03:42;;;;;;;12.00;11.10;;;24.50;99.90;;;;;;5000521;28;20443;-51
2022/06/20 06:07:01;;;;;;;11.90;10.70;;;24.40;99.90;;;;;;5001130;28;20486;-48
2022/06/20 06:09:47;;;;;;;16.40;13.93;;;24.70;99.90;;;;;;4997395;28;20505;-47
2022/06/20 06:12:38;;;;;;;12.20;11.00;;;24.90;99.90;;;;;;4996705;28;20766;-46
2022/06/20 06:15:12;;;;;;;10.97;9.83;;;25.20;99.90;;;;;;4998035;28;20459;-50
2022/06/20 06:17:51;;;;;;;8.83;8.03;;;25.70;99.90;;;;;;5000796;28;20662;-54
2022/06/20 06:20:23;;;;;;;11.20;9.53;;;26.00;99.90;;;;;;5000415;28;20463;-52
2022/06/20 06:22:56;;;;;;;10.93;9.83;;;26.30;99.90;;;;;;5000942;28;20412;-52
2022/06/20 06:25:39;;;;;;;10.93;9.90;;;26.50;99.90;;;;;;5000329;28;20470;-50
2022/06/20 06:28:21;;;;;;;11.23;9.40;;;26.90;99.90;;;;;;5002014;28;20625;-55
2022/06/20 06:31:00;;;;;;;13.93;9.37;;;27.20;99.90;;;;;;5001151;28;20471;-54
2022/06/20 06:33:35;;;;;;;8.77;8.03;;;27.60;99.90;;;;;;5001206;28;20502;-49
2022/06/20 06:36:51;;;;;;;10.27;8.57;;;27.70;99.90;;;;;;5000675;28;20462;-51
2022/06/20 06:39:20;;;;;;;10.03;9.13;;;27.70;99.90;;;;;;4967322;28;20461;-51
2022/06/20 06:41:54;;;;;;;10.03;8.63;;;27.60;99.90;;;;;;4993674;28;20417;-52
2022/06/20 06:44:39;;;;;;;8.70;8.10;;;27.60;99.90;;;;;;4997568;28;20506;-52
2022/06/20 06:47:17;;;;;;;9.27;7.90;;;27.50;99.90;;;;;;5000375;28;20406;-52
2022/06/20 06:49:48;;;;;;;9.47;8.43;;;27.50;99.90;;;;;;5000687;28;20461;-52
2022/06/20 06:52:20;;;;;;;8.97;7.83;;;28.10;99.90;;;;;;5000656;28;20431;-52
2022/06/20 06:55:17;;;;;;;9.70;8.83;;;28.90;99.90;;;;;;5000636;28;20459;-52
2022/06/20 06:57:49;;;;;;;9.90;8.63;;;29.80;99.90;;;;;;4983790;28;20422;-49
2022/06/20 07:00:58;;;;;;;18.83;8.60;;;29.90;99.90;;;;;;5000459;28;20432;-53
2022/06/20 07:03:35;;;;;;;13.63;8.40;;;30.00;99.90;;;;;;5000398;28;20407;-52
2022/06/20 07:06:09;;;;;;;9.50;8.30;;;29.70;99.90;;;;;;5000307;28;20467;-53
2022/06/20 07:09:33;;;;;;;9.43;8.53;;;30.90;99.90;;;;;;5000351;28;20485;-54
2022/06/20 07:12:20;;;;;;;8.93;8.13;;;32.90;99.90;;;;;;4999795;28;20619;-52
2022/06/20 07:15:04;;;;;;;8.13;7.43;;;33.30;99.90;;;;;;4995347;28;20459;-55
2022/06/20 07:17:56;;;;;;;18.93;8.20;;;35.30;98.40;;;;;;5000169;28;20455;-51
2022/06/20 07:20:28;;;;;;;9.00;8.30;;;36.30;94.90;;;;;;5000060;28;20661;-50
2022/06/20 07:23:00;;;;;;;9.03;8.10;;;36.10;93.80;;;;;;5000469;28;20482;-55
2022/06/20 07:25:35;;;;;;;13.63;8.87;;;35.90;94.00;;;;;;5000109;28;20490;-51
2022/06/20 07:28:23;;;;;;;7.57;6.93;;;36.80;92.00;;;;;;5000120;28;20431;-54
2022/06/20 07:31:05;;;;;;;8.40;7.50;;;36.80;91.10;;;;;;5002715;28;20474;-53
2022/06/20 07:34:03;;;;;;;8.97;8.13;;;37.70;88.20;;;;;;5004095;28;20439;-53
2022/06/20 07:36:45;;;;;;;8.53;7.70;;;37.50;87.60;;;;;;5002834;28;20473;-51
2022/06/20 07:39:20;;;;;;;9.17;8.27;;;36.60;88.90;;;;;;5003847;28;20440;-56
2022/06/20 07:41:54;;;;;;;8.17;7.57;;;37.90;85.20;;;;;;4997437;28;20434;-53
2022/06/20 07:44:33;;;;;;;7.63;7.03;;;37.40;86.20;;;;;;4999622;28;20493;-53
2022/06/20 07:47:16;;;;;;;8.90;7.90;;;37.40;86.20;;;;;;5004347;28;20427;-53
2022/06/20 07:49:49;;;;;;;10.80;8.17;;;38.30;84.40;;;;;;5003483;28;20435;-49
2022/06/20 07:52:42;;;;;;;9.93;7.70;;;38.30;83.30;;;;;;5004048;28;20439;-51
2022/06/20 07:55:15;;;;;;;10.50;8.70;;;36.90;84.60;;;;;;4998413;28;20463;-52
2022/06/20 07:57:48;;;;;;;13.13;8.67;;;34.80;90.50;;;;;;5003723;28;20482;-52
2022/06/20 08:00:23;;;;;;;8.67;7.73;;;33.10;93.50;;;;;;4999788;28;20489;-51
2022/06/20 08:03:11;;;;;;;8.97;8.20;;;32.30;96.20;;;;;;5003486;28;20438;-54
2022/06/20 08:05:48;;;;;;;10.13;7.47;;;31.30;98.50;;;;;;5003052;28;20595;-53
2022/06/20 08:08:34;;;;;;;7.80;6.97;;;29.80;99.90;;;;;;5003348;28;20695;-50
2022/06/20 08:11:40;;;;;;;12.83;7.50;;;28.90;99.90;;;;;;4997810;28;20429;-54
2022/06/20 08:14:06;;;;;;;6.20;5.73;;;28.40;99.90;;;;;;5003529;28;20439;-53
2022/06/20 08:16:35;;;;;;;9.97;7.03;;;27.90;99.90;;;;;;5003162;28;20434;-51
2022/06/20 08:19:02;;;;;;;7.20;5.73;;;27.70;99.90;;;;;;5003522;28;20437;-54
2022/06/20 08:21:46;;;;;;;10.50;7.13;;;27.30;99.90;;;;;;5003415;28;20611;-53
2022/06/20 08:24:28;;;;;;;10.00;7.23;;;27.00;99.90;;;;;;4998738;28;20408;-53
2022/06/20 08:27:42;;;;;;;10.63;7.93;;;26.60;99.90;;;;;;4996113;28;20648;-51
2022/06/20 08:30:16;;;;;;;9.00;7.60;;;26.10;99.90;;;;;;4994568;28;20567;-49
2022/06/20 08:32:54;;;;;;;8.07;7.33;;;25.70;99.90;;;;;;4993532;28;20742;-52
2022/06/20 08:35:32;;;;;;;9.47;6.63;;;25.50;99.90;;;;;;4987832;28;20452;-53
2022/06/20 08:38:32;;;;;;;8.37;7.30;;;25.20;99.90;;;;;;4987917;28;20845;-46
2022/06/20 08:41:39;;;;;;;8.23;6.40;;;24.90;99.90;;;;;;4987004;28;20462;-52
2022/06/20 08:44:22;;;;;;;9.50;7.97;;;24.70;99.90;;;;;;4984676;28;20436;-51
2022/06/20 08:47:07;;;;;;;7.87;7.27;;;24.50;99.90;;;;;;4987706;28;20478;-50
2022/06/20 08:49:47;;;;;;;8.57;7.50;;;24.20;99.90;;;;;;5000598;28;20417;-52
2022/06/20 08:52:48;;;;;;;9.90;8.27;;;24.00;99.90;;;;;;5002908;28;20455;-47
2022/06/20 08:55:34;;;;;;;12.20;8.03;;;23.90;99.90;;;;;;4998653;28;20462;-51
2022/06/20 08:58:08;;;;;;;16.37;9.20;;;23.90;99.90;;;;;;4997954;28;20414;-52
2022/06/20 09:00:59;;;;;;;8.63;7.53;;;23.60;99.90;;;;;;5000387;28;20656;-50
2022/06/20 09:03:44;;;;;;;13.53;7.63;;;23.30;99.90;;;;;;5000642;28;20604;-49
2022/06/20 09:06:46;;;;;;;7.83;7.23;;;23.10;99.90;;;;;;5000095;28;20663;-48
2022/06/20 09:09:45;;;;;;;15.50;7.50;;;22.80;99.90;;;;;;5002061;28;20668;-51
2022/06/20 09:12:36;;;;;;;14.13;8.00;;;22.80;99.90;;;;;;4997541;28;20770;-54
2022/06/20 09:15:42;;;;;;;13.77;9.20;;;23.00;99.90;;;;;;4996644;28;20818;-52
2022/06/20 09:18:10;;;;;;;9.20;8.40;;;23.30;99.90;;;;;;4996268;28;20409;-48
2022/06/20 09:21:02;;;;;;;12.60;9.13;;;23.40;99.90;;;;;;5001464;28;20872;-51
2022/06/20 09:23:53;;;;;;;11.20;8.30;;;23.40;99.90;;;;;;4998017;28;20419;-50
2022/06/20 09:26:31;;;;;;;14.53;10.17;;;24.30;99.90;;;;;;5001620;28;20483;-52
2022/06/20 09:29:35;;;;;;;9.87;8.33;;;26.80;99.90;;;;;;5003370;28;20414;-52
2022/06/20 09:32:08;;;;;;;9.50;8.20;;;27.40;99.90;;;;;;4998905;28;20467;-53
2022/06/20 09:35:04;;;;;;;10.40;9.33;;;26.10;99.90;;;;;;5001553;28;20632;-51
2022/06/20 09:38:13;;;;;;;8.33;7.60;;;25.80;99.90;;;;;;5002070;28;20430;-52
2022/06/20 09:40:45;;;;;;;8.77;7.60;;;25.70;99.90;;;;;;4969902;28;20456;-50
2022/06/20 09:43:43;;;;;;;9.80;8.77;;;25.90;99.90;;;;;;4976141;28;20846;-50
2022/06/20 09:46:22;;;;;;;9.23;7.47;;;25.80;99.90;;;;;;4988110;28;20489;-52
2022/06/20 09:48:49;;;;;;;12.53;9.77;;;25.50;99.90;;;;;;5003309;28;20436;-55
2022/06/20 09:51:44;;;;;;;12.53;8.87;;;25.10;99.90;;;;;;4997995;28;20410;-52
2022/06/20 09:54:32;;;;;;;10.97;8.40;;;24.80;99.90;;;;;;4998007;28;20439;-50
2022/06/20 09:57:45;;;;;;;9.40;7.33;;;24.50;99.90;;;;;;4996191;28;20502;-49
2022/06/20 10:00:21;;;;;;;10.13;8.73;;;24.40;99.90;;;;;;4997304;28;20663;-49
2022/06/20 10:02:56;;;;;;;10.73;8.70;;;24.50;99.90;;;;;;5001450;28;20421;-53
2022/06/20 10:05:53;;;;;;;11.47;9.37;;;24.50;99.90;;;;;;4993280;28;20633;-54
2022/06/20 10:08:46;;;;;;;19.63;10.57;;;24.60;99.90;;;;;;4999137;28;20486;-49
2022/06/20 10:11:33;;;;;;;9.60;8.73;;;24.70;99.90;;;;;;4997509;28;20593;-51
2022/06/20 10:14:13;;;;;;;18.53;8.97;;;24.70;99.90;;;;;;4995223;28;20433;-50
2022/06/20 10:17:09;;;;;;;8.80;8.00;;;24.50;99.90;;;;;;4999850;28;20467;-53
2022/06/20 10:19:42;;;;;;;11.20;7.23;;;24.00;99.90;;;;;;4948637;28;20679;-52
2022/06/20 10:22:25;;;;;;;11.87;8.93;;;23.80;99.90;;;;;;5000955;28;20661;-55
2022/06/20 10:25:38;;;;;;;7.10;6.27;;;23.50;99.90;;;;;;4999842;28;20811;-56
2022/06/20 10:28:33;;;;;;;12.43;7.70;;;23.20;99.90;;;;;;4983019;28;20493;-51
2022/06/20 10:31:42;;;;;;;9.33;7.70;;;23.10;99.90;;;;;;5012668;28;20500;-55
2022/06/20 10:34:37;;;;;;;9.13;7.17;;;23.10;99.90;;;;;;4990998;28;20734;-51
2022/06/20 10:37:30;;;;;;;8.50;7.67;;;22.80;99.90;;;;;;4988803;28;20572;-56
2022/06/20 10:40:00;;;;;;;8.00;6.27;;;22.60;99.90;;;;;;4996795;28;20418;-53
2022/06/20 10:42:38;;;;;;;10.67;7.53;;;22.40;99.90;;;;;;4998635;28;20618;-53
2022/06/20 10:45:27;;;;;;;10.77;8.90;;;22.30;99.90;;;;;;4999606;28;20483;-55
2022/06/20 10:48:13;;;;;;;11.27;7.77;;;22.10;99.90;;;;;;4997091;28;20420;-56
2022/06/20 10:50:52;;;;;;;9.13;8.33;;;22.00;99.90;;;;;;4999509;28;20784;-57
2022/06/20 10:53:43;;;;;;;11.67;9.47;;;21.60;99.90;;;;;;4999726;28;20429;-57
2022/06/20 10:56:36;;;;;;;9.20;8.30;;;21.30;99.90;;;;;;4999178;28;20477;-55
2022/06/20 10:59:30;;;;;;;11.13;10.00;;;21.20;99.90;;;;;;5000530;28;20440;-56
2022/06/20 11:02:18;;;;;;;20.40;12.80;;;20.90;99.90;;;;;;4993175;28;20413;-57
2022/06/20 11:05:04;;;;;;;20.80;12.70;;;20.80;99.90;;;;;;4992079;28;20739;-54
2022/06/20 11:07:58;;;;;;;14.70;12.53;;;20.50;99.90;;;;;;4999259;28;20403;-54
2022/06/20 11:10:58;;;;;;;14.80;12.87;;;20.30;99.90;;;;;;4997456;28;20664;-55
2022/06/20 11:13:41;;;;;;;13.43;11.07;;;20.20;99.90;;;;;;4999479;28;20438;-54
2022/06/20 11:16:27;;;;;;;11.10;9.10;;;20.50;99.90;;;;;;4999892;28;20628;-56
2022/06/20 11:19:09;;;;;;;9.57;8.67;;;20.80;99.90;;;;;;4992774;28;20412;-56
2022/06/20 11:22:13;;;;;;;8.43;7.03;;;21.00;99.90;;;;;;4999584;28;20418;-56
2022/06/20 11:24:44;;;;;;;8.27;7.43;;;21.30;99.90;;;;;;4999548;28;20507;-54
2022/06/20 11:27:35;;;;;;;16.00;8.90;;;21.90;99.90;;;;;;4999628;28;20476;-54
2022/06/20 11:30:16;;;;;;;13.70;12.50;;;22.60;99.90;;;;;;4999791;28;20413;-54
2022/06/20 11:32:59;;;;;;;13.67;9.10;;;23.40;99.90;;;;;;4999430;28;20406;-54
2022/06/20 11:35:26;;;;;;;13.87;12.57;;;23.90;99.90;;;;;;4999958;28;20500;-56
2022/06/20 11:38:23;;;;;;;14.20;12.70;;;23.50;99.90;;;;;;4999890;28;20460;-54
2022/06/20 11:41:22;;;;;;;16.03;12.40;;;23.50;99.90;;;;;;4998877;28;20421;-54
2022/06/20 11:44:27;;;;;;;12.17;10.87;;;23.60;99.90;;;;;;4994715;28;20474;-55
2022/06/20 11:47:36;;;;;;;13.57;11.83;;;23.90;99.90;;;;;;4993349;28;20454;-55
2022/06/20 11:50:38;;;;;;;11.60;10.40;;;23.50;99.90;;;;;;4993175;28;20436;-56
2022/06/20 11:53:26;;;;;;;11.77;10.70;;;23.60;99.90;;;;;;4998133;28;20412;-56
2022/06/20 11:56:12;;;;;;;14.03;12.33;;;23.10;99.90;;;;;;4996394;28;20452;-55
2022/06/20 11:59:23;;;;;;;11.97;10.80;;;23.30;99.90;;;;;;4994377;28;20585;-53
2022/06/20 12:02:04;;;;;;;13.37;11.97;;;23.20;99.90;;;;;;4991607;28;20414;-55
2022/06/20 12:04:39;;;;;;;14.80;13.30;;;23.40;99.90;;;;;;4999352;28;20436;-52
2022/06/20 12:07:38;;;;;;;13.67;12.23;;;23.20;99.90;;;;;;4999295;28;20450;-54
2022/06/20 12:10:29;;;;;;;12.70;11.57;;;22.60;99.90;;;;;;5000185;28;20406;-56
2022/06/20 12:13:04;;;;;;;14.77;12.47;;;22.40;99.90;;;;;;4993699;28;20589;-54
2022/06/20 12:15:37;;;;;;;15.83;13.33;;;22.50;99.90;;;;;;4997993;28;20471;-54
2022/06/20 12:18:33;;;;;;;13.33;11.90;;;22.20;99.90;;;;;;5003887;28;20457;-55
2022/06/20 12:23:57;;;;;;;13.70;12.50;;;21.80;99.90;;;;;;5002226;28;20428;-55
2022/06/20 12:26:35;;;;;;;13.43;12.03;;;21.90;99.90;;;;;;5003393;28;20483;-52
2022/06/20 12:29:12;;;;;;;15.30;12.50;;;22.10;99.90;;;;;;5003568;28;20410;-52
2022/06/20 12:31:43;;;;;;;12.40;11.10;;;22.30;99.90;;;;;;5003387;28;20453;-55
2022/06/20 12:34:13;;;;;;;15.97;13.87;;;22.30;99.90;;;;;;4998194;28;20498;-55
2022/06/20 12:36:59;;;;;;;13.53;11.97;;;22.50;99.90;;;;;;5003468;28;20437;-53
2022/06/20 12:39:32;;;;;;;16.40;12.90;;;22.50;99.90;;;;;;4999944;28;20512;-55
2022/06/20 12:42:17;;;;;;;14.63;12.07;;;22.20;99.90;;;;;;5002924;28;20719;-55
2022/06/20 12:45:03;;;;;;;12.50;10.73;;;22.20;99.90;;;;;;5002240;28;20434;-53
2022/06/20 12:48:00;;;;;;;13.30;11.33;;;22.40;99.90;;;;;;5002131;28;20613;-52
2022/06/20 12:50:45;;;;;;;13.10;11.70;;;22.70;99.90;;;;;;5002334;28;20478;-49
2022/06/20 12:53:18;;;;;;;15.80;10.90;;;23.30;99.90;;;;;;5002554;28;20438;-53
2022/06/20 12:55:51;;;;;;;11.87;10.47;;;23.70;99.90;;;;;;5002856;28;20484;-53
2022/06/20 12:58:44;;;;;;;11.93;10.77;;;24.60;99.90;;;;;;5002608;28;20744;-50
2022/06/20 13:01:19;;;;;;;14.30;11.43;;;24.40;99.90;;;;;;4997900;28;20414;-54
2022/06/20 13:03:49;;;;;;;12.27;10.97;;;24.00;99.90;;;;;;5003157;28;20418;-56
2022/06/20 13:06:49;;;;;;;14.63;9.40;;;24.30;99.90;;;;;;5002253;28;20683;-55
2022/06/20 13:09:36;;;;;;;12.63;11.33;;;25.10;99.90;;;;;;5002682;28;20457;-53
2022/06/20 13:12:12;;;;;;;11.00;9.90;;;25.70;99.90;;;;;;4997209;28;20452;-54
2022/06/20 13:14:45;;;;;;;11.77;10.70;;;25.90;99.90;;;;;;5002441;28;20460;-55
2022/06/20 13:17:29;;;;;;;10.83;9.83;;;25.80;99.90;;;;;;4997921;28;20630;-53
2022/06/20 13:20:33;;;;;;;11.07;10.03;;;25.70;99.90;;;;;;5002225;28;20663;-53
2022/06/20 13:23:19;;;;;;;16.57;11.47;;;25.00;99.90;;;;;;4996149;28;20477;-54
2022/06/20 13:26:19;;;;;;;12.20;9.73;;;24.70;99.90;;;;;;4994170;28;20789;-54
2022/06/20 13:29:20;;;;;;;11.47;10.00;;;24.30;99.90;;;;;;4999557;28;20408;-55
2022/06/20 13:31:57;;;;;;;11.57;10.50;;;24.40;99.90;;;;;;4996909;28;20409;-55
2022/06/20 13:34:51;;;;;;;11.47;10.33;;;25.00;99.90;;;;;;5001623;28;20406;-49
2022/06/20 13:37:42;;;;;;;17.53;10.60;;;25.40;99.90;;;;;;5001804;28;20489;-55
2022/06/20 13:40:34;;;;;;;11.27;10.07;;;25.40;99.90;;;;;;5001943;28;20754;-54
2022/06/20 13:43:23;;;;;;;11.43;10.00;;;25.00;99.90;;;;;;5001565;28;20748;-52
2022/06/20 13:46:01;;;;;;;10.40;9.30;;;24.70;99.90;;;;;;4999868;28;20483;-54
2022/06/20 13:48:33;;;;;;;11.03;9.70;;;24.70;99.90;;;;;;5001423;28;20641;-55
2022/06/20 13:51:34;;;;;;;13.50;11.10;;;24.60;99.90;;;;;;4997487;28;20452;-51
2022/06/20 13:54:44;;;;;;;12.43;9.40;;;24.20;99.90;;;;;;4991622;28;20502;-55
2022/06/20 13:57:34;;;;;;;13.40;12.10;;;23.80;99.90;;;;;;4987198;28;20467;-55